createdAt,value
2023-03-27T09:18:08.972Z,27.04
2023-03-27T09:18:20.202Z,27.04
2023-03-27T09:18:30.493Z,27.14
2023-03-27T09:18:40.732Z,27.14
2023-03-27T09:18:51.029Z,27.14
2023-03-27T09:19:01.285Z,27.04
2023-03-27T09:19:11.538Z,27.14
2023-03-27T09:19:21.779Z,27.04
2023-03-27T09:19:32.047Z,26.94
2023-03-27T09:19:42.339Z,26.84
2023-03-27T09:19:52.607Z,26.94
2023-03-27T09:20:02.832Z,26.84
2023-03-27T09:20:13.089Z,28.34
2023-03-27T09:20:23.358Z,29.04
2023-03-27T09:20:33.598Z,28.84
2023-03-27T09:20:43.882Z,28.34
2023-03-27T09:20:54.165Z,26.75
2023-03-27T09:21:04.419Z,26.54
2023-03-27T09:21:14.671Z,26.45
2023-03-27T09:21:24.924Z,26.64
2023-03-27T09:21:35.207Z,26.54
2023-03-27T09:21:45.520Z,26.54
2023-03-27T09:21:55.769Z,26.64
2023-03-27T09:22:05.974Z,26.94
2023-03-27T09:22:16.218Z,26.84
2023-03-27T09:22:26.521Z,27.04
2023-03-27T09:22:36.733Z,26.84
2023-03-27T09:22:46.989Z,27.26
2023-03-27T09:22:57.219Z,27.15
2023-03-27T09:23:07.496Z,26.96
2023-03-27T09:23:19.805Z,27.15
2023-03-27T09:23:28.081Z,27.06
2023-03-27T09:23:38.323Z,27.15
2023-03-27T09:23:48.595Z,26.96
2023-03-27T09:23:58.861Z,27.15
2023-03-27T09:24:42.956Z,26.65
2023-03-27T09:24:54.088Z,26.86
2023-03-27T09:25:04.314Z,26.86
2023-03-27T09:25:14.509Z,27.06
2023-03-27T09:25:24.722Z,27.26
2023-03-27T09:25:34.909Z,27.26
2023-03-27T09:25:45.175Z,27.86
2023-03-27T09:25:55.655Z,27.56
2023-03-27T09:26:05.715Z,27.37
2023-03-27T09:26:15.935Z,26.97
2023-03-27T09:26:26.169Z,26.77
2023-03-27T09:26:36.377Z,26.87
2023-03-27T09:26:52.672Z,26.77
2023-03-27T09:27:07.221Z,27.07
2023-03-27T09:27:13.288Z,26.77
2023-03-27T09:27:23.482Z,26.87
2023-03-27T09:27:33.686Z,27.47
2023-03-27T09:27:43.921Z,27.47
2023-03-27T09:27:54.151Z,27.17
2023-03-27T09:28:04.363Z,27.67
2023-03-27T09:28:14.621Z,27.57
2023-03-27T09:28:24.861Z,27.47
2023-03-27T09:28:35.101Z,27.47
2023-03-27T09:28:46.881Z,27.57
2023-03-27T09:28:55.691Z,27.47
2023-03-27T09:29:05.921Z,26.97
2023-03-27T09:29:19.879Z,27.57
2023-03-27T09:29:26.461Z,27.37
2023-03-27T09:29:36.691Z,27.47
2023-03-27T09:29:46.935Z,27.67
2023-03-27T09:30:05.651Z,27.77
2023-03-27T09:30:11.455Z,27.17
2023-03-27T09:30:18.030Z,27.17
2023-03-27T09:30:28.217Z,27.15
2023-03-27T09:30:38.465Z,27.06
2023-03-27T09:30:48.702Z,27.26
2023-03-27T09:30:58.977Z,26.86
2023-03-27T09:31:19.415Z,27.26
2023-03-27T09:31:29.728Z,26.76
2023-03-27T09:31:39.962Z,27.26
2023-03-27T09:31:50.367Z,27.45
2023-03-27T09:32:00.435Z,26.76
2023-03-27T09:32:10.703Z,27.36
2023-03-27T09:32:21.072Z,26.96
2023-03-27T09:32:33.605Z,26.56
2023-03-27T09:32:41.538Z,26.46
2023-03-27T09:32:51.849Z,26.76
2023-03-27T09:33:02.138Z,26.76
2023-03-27T09:33:12.414Z,26.96
2023-03-27T09:33:22.648Z,26.56
2023-03-27T09:33:32.900Z,26.65
2023-03-27T09:33:43.129Z,26.65
2023-03-27T09:33:53.332Z,26.65
2023-03-27T09:34:03.536Z,26.65
2023-03-27T09:34:13.801Z,26.86
2023-03-27T09:34:23.968Z,26.76
2023-03-27T09:34:34.360Z,26.65
2023-03-27T09:34:44.580Z,26.46
2023-03-27T09:34:54.828Z,26.65
2023-03-27T09:35:05.065Z,26.46
2023-03-27T09:35:15.288Z,26.35
2023-03-27T09:57:11.532Z,33.42
2023-03-27T09:57:22.743Z,33.90
2023-03-27T09:57:32.974Z,33.80
2023-03-27T09:57:43.212Z,33.68
2023-03-27T09:57:53.448Z,33.58
2023-03-27T09:58:03.569Z,33.18
2023-03-27T10:11:11.176Z,30.83
2023-03-27T10:11:22.352Z,30.13
2023-03-27T10:11:32.595Z,30.04
2023-03-27T10:11:42.823Z,29.94
2023-03-27T10:11:53.037Z,30.04
2023-03-27T10:12:03.260Z,29.84
2023-03-27T10:12:13.486Z,29.64
2023-03-27T10:12:23.712Z,29.74
2023-03-27T10:12:34.001Z,29.74
2023-03-27T10:12:44.219Z,30.63
2023-03-27T10:12:54.454Z,30.24
2023-03-27T10:13:04.681Z,29.84
2023-03-27T10:13:14.911Z,29.84
2023-03-27T10:13:25.145Z,29.84
2023-03-27T10:13:35.396Z,29.94
2023-03-27T10:13:45.625Z,29.84
2023-03-27T10:13:55.876Z,29.84
2023-03-27T10:14:06.088Z,29.94
2023-03-27T10:14:16.365Z,29.94
2023-03-27T10:14:47.585Z,29.74
2023-03-27T10:14:58.786Z,29.64
2023-03-27T10:15:09.024Z,29.74
2023-03-27T10:15:19.307Z,29.74
2023-03-27T10:15:36.771Z,29.64
2023-03-27T10:15:47.926Z,29.64
2023-03-27T10:15:58.238Z,29.64
2023-03-27T10:16:08.552Z,29.64
2023-03-27T10:16:18.812Z,29.64
2023-03-27T10:16:29.014Z,29.54
2023-03-27T10:16:39.362Z,29.44
2023-03-27T10:16:49.631Z,29.54
2023-03-27T10:16:59.943Z,29.74
2023-03-27T10:17:10.199Z,29.84
2023-03-27T10:17:20.444Z,29.64
2023-03-27T10:17:30.699Z,29.74
2023-03-27T10:17:41.007Z,29.74
2023-03-27T10:17:51.292Z,29.84
2023-03-27T10:18:01.607Z,29.84
2023-03-27T10:18:11.913Z,29.84
2023-03-27T10:18:22.177Z,29.74
2023-03-27T10:18:32.419Z,29.64
2023-03-27T10:18:42.683Z,29.44
2023-03-27T10:18:52.915Z,29.34
2023-03-27T10:19:03.119Z,29.44
2023-03-27T10:19:13.294Z,29.44
2023-03-27T10:19:23.709Z,29.34
2023-03-27T10:19:33.968Z,31.61
2023-03-27T10:19:44.234Z,31.12
2023-03-27T10:23:35.201Z,30.19
2023-03-27T10:34:56.292Z,27.78
2023-03-27T10:35:39.604Z,27.78
2023-03-27T10:35:50.808Z,30.84
2023-03-27T10:36:01.084Z,29.25
2023-03-27T10:36:11.318Z,27.77
2023-03-27T10:36:21.574Z,27.37
2023-03-27T10:36:31.789Z,27.27
2023-03-27T10:36:42.078Z,27.27
2023-03-27T10:36:52.367Z,27.17
2023-03-27T10:37:02.623Z,27.08
2023-03-27T10:37:12.878Z,27.08
2023-03-27T10:37:23.126Z,27.08
2023-03-27T10:37:33.374Z,26.98
2023-03-27T10:37:50.474Z,26.98
2023-03-27T10:37:57.522Z,26.98
2023-03-27T10:38:04.405Z,29.46
2023-03-27T10:38:14.625Z,28.06
